createdAt,value
2023-04-20T00:02:08.669Z,7.06
2023-04-20T00:04:49.016Z,7.08
2023-04-20T00:07:30.194Z,7.11
2023-04-20T00:10:11.599Z,7.18
2023-04-20T00:12:46.425Z,7.07
2023-04-20T00:15:27.077Z,7.11
2023-04-20T00:18:04.764Z,7.12
2023-04-20T00:20:37.633Z,7.13
2023-04-20T00:23:21.518Z,7.11
2023-04-20T00:25:59.186Z,7.04
2023-04-20T00:28:37.429Z,6.97
2023-04-20T00:31:18.843Z,6.93
2023-04-20T00:33:59.714Z,6.87
2023-04-20T00:36:33.399Z,6.85
2023-04-20T00:39:11.771Z,6.71
2023-04-20T00:41:41.951Z,6.71
2023-04-20T00:44:23.738Z,6.76
2023-04-20T00:47:05.942Z,6.58
2023-04-20T00:49:48.643Z,6.66
2023-04-20T00:52:23.596Z,6.64
2023-04-20T00:54:55.789Z,6.72
2023-04-20T00:57:39.146Z,6.88
2023-04-20T01:00:15.513Z,6.97
2023-04-20T01:02:58.864Z,7.03
2023-04-20T01:05:32.626Z,7.08
2023-04-20T01:08:31.553Z,7.04
2023-04-20T01:11:09.165Z,7.00
2023-04-20T01:13:49.836Z,6.93
2023-04-20T01:16:25.576Z,6.80
2023-04-20T01:19:08.693Z,6.63
2023-04-20T01:21:41.703Z,6.79
2023-04-20T01:24:19.975Z,6.86
2023-04-20T01:27:00.413Z,6.94
2023-04-20T01:29:38.725Z,6.91
2023-04-20T01:32:22.517Z,6.93
2023-04-20T01:34:58.146Z,7.02
2023-04-20T01:37:39.220Z,6.94
2023-04-20T01:40:16.875Z,6.82
2023-04-20T01:42:54.277Z,6.79
2023-04-20T01:45:36.676Z,6.80
2023-04-20T01:48:10.048Z,6.67
2023-04-20T01:50:42.822Z,6.53
2023-04-20T01:53:25.366Z,6.46
2023-04-20T01:56:02.724Z,6.39
2023-04-20T01:58:45.920Z,6.39
2023-04-20T02:01:18.776Z,6.42
2023-04-20T02:03:54.645Z,6.29
2023-04-20T02:06:32.123Z,6.16
2023-04-20T02:09:03.501Z,6.10
2023-04-20T02:11:36.772Z,6.12
2023-04-20T02:14:17.313Z,6.13
2023-04-20T02:16:53.573Z,6.18
2023-04-20T02:19:34.146Z,6.30
2023-04-20T02:22:09.140Z,6.04
2023-04-20T02:24:44.983Z,5.93
2023-04-20T02:27:29.138Z,5.81
2023-04-20T02:30:04.485Z,5.77
2023-04-20T02:32:49.007Z,5.70
2023-04-20T02:35:24.692Z,5.65
2023-04-20T02:38:07.647Z,5.65
2023-04-20T02:40:45.899Z,5.67
2023-04-20T02:43:28.282Z,5.59
2023-04-20T02:46:04.453Z,5.52
2023-04-20T02:48:49.188Z,5.40
2023-04-20T02:51:29.770Z,5.35
2023-04-20T02:54:03.800Z,5.37
2023-04-20T02:56:40.867Z,5.32
2023-04-20T02:59:17.870Z,5.30
2023-04-20T03:02:12.331Z,5.32
2023-04-20T03:04:50.474Z,5.43
2023-04-20T03:07:29.578Z,5.42
2023-04-20T03:10:08.335Z,5.41
2023-04-20T03:13:02.333Z,5.32
2023-04-20T03:15:59.360Z,5.21
2023-04-20T03:18:41.991Z,5.14
2023-04-20T03:21:20.166Z,5.09
2023-04-20T03:23:55.552Z,5.10
2023-04-20T03:26:33.821Z,4.98
2023-04-20T03:29:41.208Z,4.87
2023-04-20T03:32:21.074Z,4.87
2023-04-20T03:35:01.069Z,4.88
2023-04-20T03:37:41.524Z,4.94
2023-04-20T03:40:22.640Z,4.76
2023-04-20T03:42:49.716Z,4.67
2023-04-20T03:45:30.164Z,4.76
2023-04-20T03:48:10.464Z,4.66
2023-04-20T03:50:50.826Z,4.72
2023-04-20T03:53:29.104Z,4.69
2023-04-20T03:56:07.796Z,4.90
2023-04-20T03:58:48.089Z,4.80
2023-04-20T04:01:30.169Z,4.84
2023-04-20T04:04:14.100Z,4.84
2023-04-20T04:06:52.311Z,4.85
2023-04-20T04:09:32.408Z,4.89
2023-04-20T04:12:13.308Z,4.86
2023-04-20T04:14:49.450Z,5.00
2023-04-20T04:17:32.821Z,5.06
2023-04-20T04:20:15.962Z,5.19
2023-04-20T04:22:54.129Z,5.23
2023-04-20T04:25:48.736Z,5.13
2023-04-20T04:28:39.267Z,5.07
2023-04-20T04:31:22.097Z,5.11
2023-04-20T04:34:06.765Z,5.23
2023-04-20T04:36:53.967Z,5.25
2023-04-20T04:39:37.213Z,5.30
2023-04-20T04:42:28.743Z,5.45
2023-04-20T04:45:07.845Z,5.58
2023-04-20T04:47:51.739Z,5.60
2023-04-20T04:50:35.091Z,5.68
2023-04-20T04:53:17.997Z,5.84
2023-04-20T04:55:58.604Z,6.07
2023-04-20T04:58:38.462Z,6.33
2023-04-20T05:01:22.016Z,6.64
2023-04-20T05:04:03.073Z,6.79
2023-04-20T05:06:35.505Z,7.07
2023-04-20T05:09:13.272Z,7.42
2023-04-20T05:11:53.789Z,7.77
2023-04-20T05:14:37.134Z,8.07
2023-04-20T05:17:21.063Z,8.41
2023-04-20T05:19:54.430Z,8.81
2023-04-20T05:22:31.795Z,9.25
2023-04-20T05:25:14.647Z,9.59
2023-04-20T05:27:52.908Z,9.80
2023-04-20T05:30:31.898Z,10.19
2023-04-20T05:33:04.690Z,10.58
2023-04-20T05:35:45.831Z,10.78
2023-04-20T05:38:21.708Z,11.03
2023-04-20T05:40:57.916Z,11.30
2023-04-20T05:43:48.615Z,11.67
2023-04-20T05:46:24.308Z,12.13
2023-04-20T05:49:05.108Z,12.44
2023-04-20T05:51:48.212Z,12.88
2023-04-20T05:54:20.630Z,13.13
2023-04-20T05:57:01.494Z,13.27
2023-04-20T05:59:39.474Z,13.70
2023-04-20T06:02:17.320Z,13.95
2023-04-20T06:04:55.732Z,14.27
2023-04-20T06:07:28.808Z,14.52
2023-04-20T06:10:09.829Z,14.76
2023-04-20T06:12:48.254Z,14.85
2023-04-20T06:15:26.051Z,15.02
2023-04-20T06:18:08.607Z,14.56
2023-04-20T06:20:46.610Z,14.75
2023-04-20T06:23:26.752Z,14.67
2023-04-20T06:26:04.619Z,15.01
2023-04-20T06:28:43.204Z,15.45
2023-04-20T06:31:18.595Z,15.34
2023-04-20T06:34:01.847Z,15.57
2023-04-20T06:36:42.640Z,15.69
2023-04-20T06:39:18.015Z,15.40
2023-04-20T06:41:53.360Z,15.31
2023-04-20T06:44:32.191Z,15.45
2023-04-20T06:47:13.030Z,15.45
2023-04-20T06:49:54.122Z,15.38
2023-04-20T06:52:32.085Z,15.68
2023-04-20T06:55:13.437Z,15.27
2023-04-20T06:57:51.496Z,15.81
2023-04-20T07:00:28.880Z,16.13
2023-04-20T07:03:11.815Z,15.96
2023-04-20T07:05:52.847Z,16.19
2023-04-20T07:08:32.376Z,15.81
2023-04-20T07:11:08.673Z,16.61
2023-04-20T07:13:52.847Z,16.47
2023-04-20T07:16:33.139Z,16.04
2023-04-20T07:19:13.708Z,16.87
2023-04-20T07:21:48.311Z,17.23
2023-04-20T07:24:32.021Z,17.41
2023-04-20T07:27:06.936Z,17.36
2023-04-20T07:29:40.783Z,17.35
2023-04-20T07:32:22.542Z,17.31
2023-04-20T07:34:57.862Z,17.46
2023-04-20T07:37:39.203Z,17.54
2023-04-20T07:40:14.160Z,17.85
2023-04-20T07:42:55.648Z,17.55
2023-04-20T07:45:36.797Z,17.65
2023-04-20T07:48:23.065Z,17.83
2023-04-20T07:51:01.519Z,17.72
2023-04-20T07:53:37.344Z,17.63
2023-04-20T07:56:18.763Z,17.72
2023-04-20T07:58:56.745Z,18.00
2023-04-20T08:01:34.246Z,18.08
2023-04-20T08:04:12.196Z,18.11
2023-04-20T08:06:56.988Z,18.41
2023-04-20T08:09:29.750Z,18.28
2023-04-20T08:12:13.561Z,18.37
2023-04-20T08:14:48.130Z,18.11
2023-04-20T08:17:25.983Z,18.49
2023-04-20T08:20:01.774Z,18.30
2023-04-20T08:22:42.629Z,18.78
2023-04-20T08:25:22.906Z,18.35
2023-04-20T08:28:01.107Z,18.49
2023-04-20T08:30:41.214Z,18.65
2023-04-20T08:33:12.700Z,18.58
2023-04-20T08:35:50.955Z,18.75
2023-04-20T08:38:36.596Z,18.59
2023-04-20T08:41:15.531Z,18.57
2023-04-20T08:43:54.372Z,19.05
2023-04-20T08:46:33.520Z,18.83
2023-04-20T08:49:10.679Z,18.77
2023-04-20T08:51:58.669Z,18.65
2023-04-20T08:54:56.174Z,18.77
2023-04-20T08:57:35.631Z,18.81
2023-04-20T09:00:13.570Z,18.91
2023-04-20T09:03:07.435Z,18.91
2023-04-20T09:05:47.321Z,19.07
2023-04-20T09:08:31.931Z,19.41
2023-04-20T09:11:08.630Z,19.57
2023-04-20T09:13:59.189Z,19.22
2023-04-20T09:16:41.471Z,18.94
2023-04-20T09:19:21.859Z,19.67
2023-04-20T09:21:59.913Z,20.07
2023-04-20T09:24:42.803Z,20.09
2023-04-20T09:27:30.095Z,20.49
2023-04-20T09:30:10.310Z,20.70
2023-04-20T09:32:49.777Z,20.50
2023-04-20T09:35:31.313Z,20.21
2023-04-20T09:38:16.894Z,20.15
2023-04-20T09:40:57.609Z,20.46
2023-04-20T09:43:36.606Z,20.85
2023-04-20T09:46:09.106Z,21.24
2023-04-20T09:48:46.976Z,19.98
2023-04-20T09:51:25.228Z,20.07
2023-04-20T09:54:17.318Z,19.84
2023-04-20T09:56:52.203Z,19.46
2023-04-20T09:59:26.890Z,19.92
2023-04-20T10:02:13.259Z,19.71
2023-04-20T10:05:05.675Z,19.22
2023-04-20T10:07:46.402Z,19.20
2023-04-20T10:10:21.607Z,18.99
2023-04-20T10:12:58.645Z,18.53
2023-04-20T10:15:44.335Z,18.98
2023-04-20T10:18:26.713Z,19.38
2023-04-20T10:21:24.940Z,19.79
2023-04-20T10:24:06.671Z,20.04
2023-04-20T10:26:45.607Z,20.39
2023-04-20T10:29:38.124Z,20.70
2023-04-20T10:32:21.169Z,20.71
2023-04-20T10:35:18.639Z,20.75
2023-04-20T10:37:59.303Z,20.72
2023-04-20T10:40:35.172Z,20.73
2023-04-20T10:43:23.781Z,20.45
2023-04-20T10:46:18.748Z,20.60
2023-04-20T10:49:01.375Z,20.55
2023-04-20T10:51:39.160Z,20.81
2023-04-20T10:54:18.409Z,20.65
2023-04-20T10:56:57.409Z,20.89
2023-04-20T10:59:42.150Z,20.15
2023-04-20T11:02:20.776Z,19.84
2023-04-20T11:05:01.345Z,18.99
2023-04-20T11:07:47.766Z,19.43
2023-04-20T11:10:24.857Z,20.33
2023-04-20T11:13:03.511Z,20.55
2023-04-20T11:15:45.222Z,20.70
2023-04-20T11:18:23.049Z,20.89
2023-04-20T11:21:15.858Z,20.89
2023-04-20T11:23:52.846Z,20.42
2023-04-20T11:26:28.585Z,20.63
2023-04-20T11:29:07.841Z,20.48
2023-04-20T11:31:43.549Z,20.74
2023-04-20T11:34:31.095Z,20.16
2023-04-20T11:37:13.970Z,19.55
2023-04-20T11:39:52.111Z,19.32
2023-04-20T11:42:35.486Z,19.94
2023-04-20T11:45:14.588Z,20.70
2023-04-20T11:47:47.451Z,21.46
2023-04-20T11:50:29.240Z,21.81
2023-04-20T11:53:09.946Z,21.18
2023-04-20T11:55:49.345Z,21.20
2023-04-20T11:58:28.639Z,20.27
2023-04-20T12:01:06.328Z,20.54
2023-04-20T12:03:47.506Z,20.83
2023-04-20T12:06:27.265Z,21.33
2023-04-20T12:09:00.300Z,21.35
2023-04-20T12:11:41.974Z,21.52
2023-04-20T12:14:22.613Z,22.20
2023-04-20T12:17:04.637Z,22.07
2023-04-20T12:19:46.510Z,21.21
2023-04-20T12:22:30.372Z,21.32
2023-04-20T12:25:11.381Z,21.06
2023-04-20T12:27:50.015Z,20.79
2023-04-20T12:30:36.377Z,20.74
2023-04-20T12:33:12.640Z,21.20
2023-04-20T12:35:55.513Z,21.42
2023-04-20T12:38:29.466Z,22.44
2023-04-20T12:41:05.045Z,22.94
2023-04-20T12:43:43.254Z,22.43
2023-04-20T12:46:29.918Z,22.36
2023-04-20T12:49:10.788Z,22.08
2023-04-20T12:51:46.629Z,21.84
2023-04-20T12:54:24.587Z,21.43
2023-04-20T12:57:05.282Z,20.98
2023-04-20T12:59:40.462Z,21.84
2023-04-20T13:02:18.111Z,22.56
2023-04-20T13:04:56.641Z,22.92
2023-04-20T13:07:39.867Z,22.75
2023-04-20T13:10:16.595Z,22.64
2023-04-20T13:13:00.922Z,22.68
2023-04-20T13:15:41.698Z,23.06
2023-04-20T13:18:24.933Z,22.72
2023-04-20T13:21:02.878Z,23.10
2023-04-20T13:23:40.003Z,23.34
2023-04-20T13:26:23.391Z,22.81
2023-04-20T13:29:01.063Z,23.07
2023-04-20T13:31:38.945Z,22.54
2023-04-20T13:34:14.686Z,22.51
2023-04-20T13:36:49.424Z,22.37
2023-04-20T13:39:32.582Z,21.76
2023-04-20T13:42:13.921Z,22.18
2023-04-20T13:44:52.502Z,21.53
2023-04-20T13:47:33.128Z,21.62
2023-04-20T13:50:11.215Z,20.85
2023-04-20T13:52:49.377Z,21.17
2023-04-20T13:55:32.849Z,20.95
2023-04-20T13:58:15.422Z,21.47
2023-04-20T14:00:52.861Z,22.24
2023-04-20T14:03:36.709Z,22.53
2023-04-20T14:06:20.523Z,22.47
2023-04-20T14:08:59.093Z,22.58
2023-04-20T14:11:43.728Z,23.03
2023-04-20T14:14:28.096Z,22.14
2023-04-20T14:17:14.760Z,22.09
2023-04-20T14:19:59.592Z,21.76
2023-04-20T14:22:36.771Z,21.20
2023-04-20T14:25:16.166Z,20.99
2023-04-20T14:27:58.334Z,20.70
2023-04-20T14:30:33.200Z,20.81
2023-04-20T14:33:10.791Z,20.85
2023-04-20T14:35:52.138Z,21.48
2023-04-20T14:38:30.763Z,22.32
2023-04-20T14:41:05.700Z,23.07
2023-04-20T14:43:49.628Z,23.42
2023-04-20T14:46:25.671Z,23.74
2023-04-20T14:49:07.302Z,23.17
2023-04-20T14:51:47.987Z,22.65
2023-04-20T14:54:21.012Z,22.01
2023-04-20T14:57:01.609Z,21.81
2023-04-20T14:59:37.632Z,21.36
2023-04-20T15:02:15.415Z,21.21
2023-04-20T15:04:54.138Z,20.64
2023-04-20T15:07:40.978Z,20.14
2023-04-20T15:10:13.854Z,19.76
2023-04-20T15:12:57.670Z,19.61
2023-04-20T15:15:47.747Z,19.28
2023-04-20T15:18:30.802Z,19.13
2023-04-20T15:21:03.635Z,18.99
2023-04-20T15:23:38.240Z,18.76
2023-04-20T15:26:14.808Z,18.39
2023-04-20T15:28:49.547Z,18.58
2023-04-20T15:31:19.704Z,18.35
2023-04-20T15:33:52.451Z,18.52
2023-04-20T15:36:29.634Z,18.64
2023-04-20T15:39:16.157Z,18.77
2023-04-20T15:41:51.642Z,18.92
2023-04-20T15:44:28.817Z,18.55
2023-04-20T15:47:03.789Z,18.61
2023-04-20T15:49:36.710Z,18.58
2023-04-20T15:52:07.607Z,18.81
2023-04-20T15:54:37.477Z,18.97
2023-04-20T15:57:21.628Z,18.78
2023-04-20T15:59:59.871Z,18.72
2023-04-20T16:02:34.949Z,18.46
2023-04-20T16:05:11.597Z,18.27
2023-04-20T16:07:53.730Z,18.10
2023-04-20T16:10:28.713Z,17.82
2023-04-20T16:13:12.993Z,17.66
2023-04-20T16:15:59.176Z,17.37
2023-04-20T16:18:42.289Z,17.26
2023-04-20T16:21:27.601Z,17.27
2023-04-20T16:24:03.383Z,17.22
2023-04-20T16:26:39.600Z,17.23
2023-04-20T16:29:13.889Z,17.17
2023-04-20T16:31:57.911Z,17.09
2023-04-20T16:34:35.649Z,16.90
2023-04-20T16:37:14.263Z,16.88
2023-04-20T16:39:54.533Z,16.67
2023-04-20T16:42:34.409Z,16.44
2023-04-20T16:45:13.129Z,16.58
2023-04-20T16:47:57.801Z,16.39
2023-04-20T16:50:32.785Z,16.39
2023-04-20T16:53:11.637Z,16.19
2023-04-20T16:55:52.921Z,16.10
2023-04-20T16:58:28.369Z,15.91
2023-04-20T17:01:09.672Z,15.94
2023-04-20T17:03:52.553Z,15.95
2023-04-20T17:06:33.424Z,15.93
2023-04-20T17:09:11.396Z,15.93
2023-04-20T17:12:05.001Z,15.84
2023-04-20T17:14:43.531Z,15.89
2023-04-20T17:17:19.647Z,15.81
2023-04-20T17:19:52.172Z,15.79
2023-04-20T17:22:37.442Z,15.66
2023-04-20T17:25:13.185Z,15.71
2023-04-20T17:27:47.927Z,15.64
2023-04-20T17:30:23.735Z,15.47
2023-04-20T17:33:03.614Z,15.58
2023-04-20T17:35:46.543Z,15.43
2023-04-20T17:38:19.586Z,15.36
2023-04-20T17:40:55.621Z,15.24
2023-04-20T17:43:30.811Z,15.01
2023-04-20T17:46:08.638Z,14.93
2023-04-20T17:48:47.393Z,14.75
2023-04-20T17:51:30.770Z,14.69
2023-04-20T17:54:09.815Z,14.53
2023-04-20T17:56:44.872Z,14.36
2023-04-20T17:59:22.958Z,14.33
2023-04-20T18:01:58.882Z,14.41
2023-04-20T18:04:36.061Z,14.50
2023-04-20T18:07:13.184Z,14.46
2023-04-20T18:09:50.770Z,14.51
2023-04-20T18:12:26.194Z,14.52
2023-04-20T18:15:05.015Z,14.48
2023-04-20T18:17:39.623Z,14.41
2023-04-20T18:20:15.307Z,14.27
2023-04-20T18:22:50.341Z,14.26
2023-04-20T18:25:26.198Z,14.27
2023-04-20T18:28:02.317Z,14.17
2023-04-20T18:30:44.278Z,14.19
2023-04-20T18:33:18.981Z,14.12
2023-04-20T18:35:51.271Z,13.96
2023-04-20T18:38:39.211Z,13.86
2023-04-20T18:41:27.839Z,13.71
2023-04-20T18:44:16.438Z,13.68
2023-04-20T18:46:51.762Z,13.59
2023-04-20T18:49:38.078Z,13.48
2023-04-20T18:52:13.815Z,13.28
2023-04-20T18:54:54.809Z,13.12
2023-04-20T18:57:30.937Z,12.98
2023-04-20T19:00:08.053Z,12.75
2023-04-20T19:02:42.956Z,12.58
2023-04-20T19:05:18.189Z,12.40
2023-04-20T19:07:51.070Z,12.25
2023-04-20T19:10:25.794Z,12.15
2023-04-20T19:13:02.753Z,12.10
2023-04-20T19:15:41.460Z,12.00
2023-04-20T19:18:22.651Z,11.88
2023-04-20T19:20:57.028Z,11.83
2023-04-20T19:23:31.603Z,11.70
2023-04-20T19:26:08.882Z,11.55
2023-04-20T19:28:49.554Z,11.40
2023-04-20T19:31:24.928Z,11.31
2023-04-20T19:34:08.186Z,11.26
2023-04-20T19:36:48.837Z,11.20
2023-04-20T19:39:29.624Z,11.18
2023-04-20T19:42:10.839Z,11.14
2023-04-20T19:44:48.531Z,11.05
2023-04-20T19:47:29.667Z,10.99
2023-04-20T19:50:08.218Z,10.93
2023-04-20T19:52:49.516Z,10.83
2023-04-20T19:55:26.405Z,10.64
2023-04-20T19:58:09.270Z,10.52
2023-04-20T20:00:47.226Z,10.41
2023-04-20T20:03:25.838Z,10.39
2023-04-20T20:06:01.317Z,10.38
2023-04-20T20:08:37.624Z,10.30
2023-04-20T20:11:16.459Z,10.02
2023-04-20T20:13:51.946Z,9.96
2023-04-20T20:16:24.770Z,9.98
2023-04-20T20:19:00.569Z,9.87
2023-04-20T20:21:35.360Z,9.76
2023-04-20T20:24:10.861Z,9.72
2023-04-20T20:26:51.350Z,9.68
2023-04-20T20:29:31.766Z,9.71
2023-04-20T20:32:01.715Z,9.63
2023-04-20T20:34:38.441Z,9.60
2023-04-20T20:37:19.605Z,9.56
2023-04-20T20:39:58.676Z,9.56
2023-04-20T20:42:33.957Z,9.48
2023-04-20T20:45:12.544Z,9.42
2023-04-20T20:47:50.131Z,9.35
2023-04-20T20:50:27.911Z,9.25
2023-04-20T20:53:11.769Z,9.13
2023-04-20T20:55:46.802Z,9.11
2023-04-20T20:58:22.227Z,9.07
2023-04-20T21:00:57.888Z,8.98
2023-04-20T21:03:33.400Z,9.01
2023-04-20T21:06:11.747Z,8.93
2023-04-20T21:08:41.261Z,8.99
2023-04-20T21:11:19.461Z,8.96
2023-04-20T21:13:56.557Z,9.02
2023-04-20T21:16:40.677Z,9.06
2023-04-20T21:19:15.753Z,8.96
2023-04-20T21:21:48.093Z,8.93
2023-04-20T21:24:30.998Z,9.00
2023-04-20T21:27:11.546Z,8.88
2023-04-20T21:29:44.194Z,8.81
2023-04-20T21:32:17.512Z,8.74
2023-04-20T21:34:52.680Z,8.76
2023-04-20T21:37:28.909Z,8.72
2023-04-20T21:40:01.679Z,8.80
2023-04-20T21:42:36.112Z,8.64
2023-04-20T21:45:17.853Z,8.63
2023-04-20T21:47:58.688Z,8.58
2023-04-20T21:50:33.860Z,8.54
2023-04-20T21:53:20.037Z,8.41
2023-04-20T21:56:00.471Z,8.45
2023-04-20T21:58:40.599Z,8.47
2023-04-20T22:01:15.283Z,8.50
2023-04-20T22:03:47.868Z,8.40
2023-04-20T22:06:23.532Z,8.43
2023-04-20T22:09:04.472Z,8.30
2023-04-20T22:11:37.695Z,8.25
2023-04-20T22:14:14.202Z,8.11
2023-04-20T22:16:52.628Z,8.12
2023-04-20T22:19:36.673Z,7.98
2023-04-20T22:22:08.751Z,7.81
2023-04-20T22:24:41.186Z,7.76
2023-04-20T22:27:16.369Z,7.69
2023-04-20T22:29:46.110Z,7.63
2023-04-20T22:32:21.477Z,7.66
2023-04-20T22:34:54.044Z,7.65
2023-04-20T22:37:31.640Z,7.73
2023-04-20T22:40:07.652Z,7.65
2023-04-20T22:42:40.345Z,7.51
2023-04-20T22:45:21.187Z,7.58
2023-04-20T22:47:56.471Z,7.65
2023-04-20T22:50:35.614Z,7.46
2023-04-20T22:53:08.654Z,7.44
2023-04-20T22:55:41.291Z,7.44
2023-04-20T22:58:19.180Z,7.37
2023-04-20T23:00:56.253Z,7.38
2023-04-20T23:03:28.958Z,7.30
2023-04-20T23:06:11.231Z,7.27
2023-04-20T23:08:44.607Z,7.22
2023-04-20T23:11:29.531Z,7.12
2023-04-20T23:14:05.285Z,7.10
2023-04-20T23:16:41.192Z,7.02
2023-04-20T23:19:21.890Z,7.07
2023-04-20T23:21:58.077Z,6.88
2023-04-20T23:24:36.637Z,6.83
2023-04-20T23:27:11.417Z,6.97
2023-04-20T23:29:49.031Z,6.76
2023-04-20T23:32:26.977Z,6.86
2023-04-20T23:34:59.769Z,6.80
2023-04-20T23:37:40.539Z,6.77
2023-04-20T23:40:19.271Z,6.70
2023-04-20T23:43:01.545Z,6.78
2023-04-20T23:45:39.786Z,6.62
2023-04-20T23:48:18.606Z,6.55
2023-04-20T23:50:55.772Z,6.50
2023-04-20T23:53:34.261Z,6.54
2023-04-20T23:56:10.421Z,6.48
2023-04-20T23:58:50.950Z,6.44
